createdAt,value
2024-01-05T00:01:57.786Z,11.50
2024-01-05T00:04:29.598Z,12.25
2024-01-05T00:07:01.447Z,12.82
2024-01-05T00:09:33.271Z,11.38
2024-01-05T00:12:07.320Z,12.90
2024-01-05T00:14:39.478Z,12.57
2024-01-05T00:17:11.769Z,12.55
2024-01-05T00:19:43.633Z,12.57
2024-01-05T00:22:15.418Z,14.20
2024-01-05T00:24:47.364Z,11.20
2024-01-05T00:27:19.277Z,13.50
2024-01-05T00:29:51.132Z,13.30
2024-01-05T00:32:22.938Z,13.95
2024-01-05T00:34:54.718Z,14.27
2024-01-05T00:37:26.537Z,12.35
2024-01-05T00:39:58.297Z,14.68
2024-01-05T00:42:30.185Z,11.15
2024-01-05T00:45:02.043Z,14.65
2024-01-05T00:47:34.015Z,15.32
2024-01-05T00:50:06.444Z,14.82
2024-01-05T00:52:38.438Z,12.70
2024-01-05T00:55:10.361Z,10.45
2024-01-05T00:57:42.385Z,11.27
2024-01-05T01:00:14.831Z,11.35
2024-01-05T01:02:46.736Z,9.07
2024-01-05T01:05:19.035Z,9.02
2024-01-05T01:07:50.890Z,7.82
2024-01-05T01:10:22.677Z,8.52
2024-01-05T01:12:54.479Z,9.00
2024-01-05T01:15:26.346Z,8.68
2024-01-05T01:17:58.419Z,9.20
2024-01-05T01:20:30.516Z,7.97
2024-01-05T01:23:02.437Z,6.32
2024-01-05T01:25:34.184Z,7.40
2024-01-05T01:28:06.270Z,8.35
2024-01-05T01:30:38.159Z,6.95
2024-01-05T01:33:10.068Z,8.32
2024-01-05T01:35:41.912Z,8.25
2024-01-05T01:38:13.673Z,8.25
2024-01-05T01:40:49.495Z,6.07
2024-01-05T01:43:24.042Z,7.43
2024-01-05T01:46:02.015Z,7.90
2024-01-05T01:48:34.046Z,8.65
2024-01-05T01:51:05.944Z,6.43
2024-01-05T01:53:38.424Z,9.55
2024-01-05T01:56:12.870Z,7.35
2024-01-05T01:58:45.672Z,6.93
2024-01-05T02:01:17.744Z,6.97
2024-01-05T02:03:50.115Z,8.35
2024-01-05T02:06:22.150Z,6.70
2024-01-05T02:08:54.365Z,5.88
2024-01-05T02:11:26.170Z,6.53
2024-01-05T02:13:58.017Z,5.57
2024-01-05T02:16:29.756Z,8.10
2024-01-05T02:19:01.760Z,5.70
2024-01-05T02:21:40.310Z,5.57
2024-01-05T02:24:12.125Z,5.00
2024-01-05T02:26:44.282Z,6.85
2024-01-05T02:29:23.382Z,9.25
2024-01-05T02:31:55.426Z,6.95
2024-01-05T02:34:27.332Z,6.85
2024-01-05T02:36:59.117Z,6.15
2024-01-05T02:39:30.947Z,8.32
2024-01-05T02:42:02.876Z,6.32
2024-01-05T02:44:34.689Z,6.18
2024-01-05T02:47:07.145Z,6.75
2024-01-05T02:49:38.983Z,8.07
2024-01-05T02:52:10.796Z,5.30
2024-01-05T02:54:45.727Z,5.88
2024-01-05T02:57:17.537Z,7.15
2024-01-05T02:59:49.363Z,5.57
2024-01-05T03:02:21.164Z,6.55
2024-01-05T03:04:53.428Z,7.00
2024-01-05T03:07:25.808Z,6.45
2024-01-05T03:09:57.741Z,6.32
2024-01-05T03:12:29.931Z,7.40
2024-01-05T03:15:01.874Z,9.38
2024-01-05T03:17:33.723Z,8.55
2024-01-05T03:20:06.060Z,8.55
2024-01-05T03:22:37.962Z,8.82
2024-01-05T03:25:09.876Z,10.70
2024-01-05T03:27:41.628Z,9.07
2024-01-05T03:30:13.711Z,8.20
2024-01-05T03:32:45.676Z,7.03
2024-01-05T03:35:17.468Z,4.97
2024-01-05T03:37:50.911Z,6.32
2024-01-05T03:40:22.902Z,7.30
2024-01-05T03:42:55.028Z,6.75
2024-01-05T03:45:26.874Z,5.20
2024-01-05T03:47:58.913Z,4.93
2024-01-05T03:50:30.766Z,5.40
2024-01-05T03:53:02.520Z,5.43
2024-01-05T03:55:34.333Z,4.57
2024-01-05T03:58:07.573Z,4.32
2024-01-05T04:00:39.558Z,3.92
2024-01-05T04:03:11.572Z,3.90
2024-01-05T04:05:43.835Z,3.40
2024-01-05T04:08:15.637Z,3.15
2024-01-05T04:10:47.610Z,3.90
2024-01-05T04:13:19.427Z,3.17
2024-01-05T04:15:51.183Z,3.03
2024-01-05T04:18:23.058Z,2.60
2024-01-05T04:20:54.982Z,3.03
2024-01-05T04:23:26.795Z,2.55
2024-01-05T04:25:58.564Z,5.38
2024-01-05T04:28:30.716Z,3.53
2024-01-05T04:31:02.964Z,4.40
2024-01-05T04:33:34.845Z,2.17
2024-01-05T04:36:07.027Z,2.10
2024-01-05T04:38:39.203Z,5.60
2024-01-05T04:41:13.246Z,3.40
2024-01-05T04:43:45.847Z,2.38
2024-01-05T04:46:19.015Z,3.85
2024-01-05T04:48:51.138Z,2.55
2024-01-05T04:51:23.246Z,2.90
2024-01-05T04:53:55.786Z,3.83
2024-01-05T04:56:27.820Z,3.33
2024-01-05T04:58:59.628Z,3.78
2024-01-05T05:01:31.483Z,3.13
2024-01-05T05:04:03.378Z,3.85
2024-01-05T05:06:35.280Z,3.42
2024-01-05T05:09:07.126Z,3.60
2024-01-05T05:11:41.643Z,4.13
2024-01-05T05:14:13.715Z,4.28
2024-01-05T05:16:45.514Z,4.13
2024-01-05T05:19:17.525Z,8.73
2024-01-05T05:21:49.390Z,5.30
2024-01-05T05:24:21.178Z,4.13
2024-01-05T05:26:53.013Z,3.35
2024-01-05T05:29:24.805Z,4.53
2024-01-05T05:31:56.583Z,4.22
2024-01-05T05:34:28.487Z,4.03
2024-01-05T05:37:00.297Z,4.18
2024-01-05T05:39:32.132Z,5.53
2024-01-05T05:42:04.232Z,4.03
2024-01-05T05:44:35.996Z,2.92
2024-01-05T05:47:07.767Z,3.25
2024-01-05T05:49:40.035Z,3.60
2024-01-05T05:52:11.858Z,3.95
2024-01-05T05:54:44.781Z,3.05
2024-01-05T05:57:17.412Z,2.10
2024-01-05T05:59:49.238Z,4.18
2024-01-05T06:02:21.013Z,5.43
2024-01-05T06:04:52.804Z,4.93
2024-01-05T06:07:25.455Z,4.10
2024-01-05T06:09:58.278Z,6.13
2024-01-05T06:12:30.112Z,5.25
2024-01-05T06:15:02.173Z,6.32
2024-01-05T06:17:34.365Z,6.35
2024-01-05T06:20:09.116Z,5.93
2024-01-05T06:22:40.947Z,5.72
2024-01-05T06:25:13.147Z,5.43
2024-01-05T06:27:44.916Z,7.50
2024-01-05T06:30:16.923Z,5.28
2024-01-05T06:32:48.760Z,19.08
2024-01-05T06:35:20.572Z,15.70
2024-01-05T06:37:52.343Z,10.00
2024-01-05T06:40:24.222Z,7.15
2024-01-05T06:42:57.627Z,6.60
2024-01-05T06:45:29.419Z,7.20
2024-01-05T06:48:01.562Z,4.95
2024-01-05T06:50:36.331Z,4.18
2024-01-05T06:53:09.320Z,5.75
2024-01-05T06:55:41.143Z,8.88
2024-01-05T06:58:12.968Z,11.63
2024-01-05T07:00:44.854Z,13.35
2024-01-05T07:03:16.989Z,18.83
2024-01-05T07:05:49.984Z,18.35
2024-01-05T07:08:21.813Z,12.68
2024-01-05T07:10:53.637Z,5.93
2024-01-05T07:13:25.689Z,9.05
2024-01-05T07:15:57.536Z,18.90
2024-01-05T07:18:29.470Z,19.65
2024-01-05T07:21:04.887Z,9.13
2024-01-05T07:23:39.679Z,9.85
2024-01-05T07:26:11.503Z,12.18
2024-01-05T07:28:43.251Z,6.90
2024-01-05T07:31:15.146Z,8.52
2024-01-05T07:33:47.096Z,3.58
2024-01-05T07:36:19.389Z,4.80
2024-01-05T07:38:51.162Z,4.30
2024-01-05T07:41:22.932Z,5.93
2024-01-05T07:43:54.924Z,4.80
2024-01-05T07:46:28.476Z,4.85
2024-01-05T07:49:00.506Z,3.33
2024-01-05T07:51:32.462Z,4.00
2024-01-05T07:54:04.686Z,5.30
2024-01-05T07:56:39.758Z,4.28
2024-01-05T07:59:11.665Z,4.53
2024-01-05T08:01:43.586Z,5.15
2024-01-05T08:04:15.947Z,5.57
2024-01-05T08:06:51.857Z,3.95
2024-01-05T08:09:23.866Z,4.85
2024-01-05T08:11:56.117Z,4.35
2024-01-05T08:14:27.910Z,9.88
2024-01-05T08:16:59.714Z,4.85
2024-01-05T08:19:31.772Z,5.93
2024-01-05T08:22:04.073Z,5.82
2024-01-05T08:24:36.106Z,6.10
2024-01-05T08:27:07.955Z,6.32
2024-01-05T08:29:39.718Z,7.95
2024-01-05T08:32:11.579Z,7.32
2024-01-05T08:34:43.546Z,7.38
2024-01-05T08:37:15.540Z,6.90
2024-01-05T08:39:47.350Z,7.35
2024-01-05T08:42:19.304Z,9.52
2024-01-05T08:44:52.097Z,24.20
2024-01-05T08:47:23.867Z,22.70
2024-01-05T08:49:55.744Z,8.20
2024-01-05T08:52:27.534Z,12.63
2024-01-05T08:54:59.310Z,9.00
2024-01-05T08:57:31.254Z,8.15
2024-01-05T09:00:03.314Z,6.38
2024-01-05T09:02:35.209Z,6.55
2024-01-05T09:05:07.313Z,6.70
2024-01-05T09:07:39.574Z,7.47
2024-01-05T09:10:11.525Z,6.15
2024-01-05T09:12:43.375Z,8.38
2024-01-05T09:15:17.435Z,7.43
2024-01-05T09:17:49.336Z,7.03
2024-01-05T09:20:21.102Z,9.45
2024-01-05T09:22:52.888Z,8.80
2024-01-05T09:25:24.832Z,5.30
2024-01-05T09:27:56.780Z,7.00
2024-01-05T09:30:28.659Z,4.90
2024-01-05T09:33:00.774Z,6.72
2024-01-05T09:35:33.702Z,6.53
2024-01-05T09:38:06.141Z,5.80
2024-01-05T09:40:38.526Z,6.68
2024-01-05T09:43:12.056Z,5.57
2024-01-05T09:45:45.476Z,10.02
2024-01-05T09:48:21.249Z,15.32
2024-01-05T09:50:57.027Z,6.38
2024-01-05T09:53:28.838Z,9.07
2024-01-05T09:56:02.367Z,12.20
2024-01-05T09:58:36.553Z,8.60
2024-01-05T10:01:20.753Z,7.93
2024-01-05T10:03:59.331Z,3.63
2024-01-05T10:06:32.008Z,8.35
2024-01-05T10:09:04.096Z,7.13
2024-01-05T10:11:41.964Z,5.68
2024-01-05T10:14:14.746Z,5.60
2024-01-05T10:16:46.660Z,5.22
2024-01-05T10:19:20.413Z,7.40
2024-01-05T10:21:52.288Z,8.05
2024-01-05T10:24:30.894Z,9.00
2024-01-05T10:27:12.858Z,7.03
2024-01-05T10:29:45.872Z,12.02
2024-01-05T10:32:20.017Z,11.10
2024-01-05T10:34:52.364Z,13.18
2024-01-05T10:37:24.187Z,8.40
2024-01-05T10:39:57.597Z,8.75
2024-01-05T10:42:30.415Z,8.05
2024-01-05T10:45:02.797Z,5.30
2024-01-05T10:47:35.476Z,4.32
2024-01-05T10:50:08.118Z,6.57
2024-01-05T10:52:43.860Z,5.53
2024-01-05T10:55:18.597Z,4.72
2024-01-05T10:57:50.424Z,7.13
2024-01-05T11:00:26.300Z,6.18
2024-01-05T11:03:15.465Z,5.68
2024-01-05T11:05:47.861Z,8.88
2024-01-05T11:08:41.166Z,8.98
2024-01-05T11:11:18.853Z,6.63
2024-01-05T11:13:59.671Z,7.97
2024-01-05T11:16:56.706Z,6.38
2024-01-05T11:19:53.668Z,7.75
2024-01-05T11:22:37.357Z,7.47
2024-01-05T11:25:09.465Z,12.50
2024-01-05T11:27:47.336Z,6.45
2024-01-05T11:30:42.044Z,9.20
2024-01-05T11:33:49.615Z,5.75
2024-01-05T11:36:55.640Z,11.68
2024-01-05T11:39:47.182Z,12.93
2024-01-05T11:42:25.096Z,16.50
2024-01-05T11:44:58.678Z,10.20
2024-01-05T11:47:43.356Z,5.40
2024-01-05T11:50:32.049Z,19.30
2024-01-05T11:53:17.067Z,26.40
2024-01-05T11:55:53.778Z,15.18
2024-01-05T11:58:29.192Z,9.40
2024-01-05T12:01:01.873Z,7.93
2024-01-05T12:03:33.935Z,7.10
2024-01-05T12:06:07.765Z,7.68
2024-01-05T12:08:41.657Z,10.63
2024-01-05T12:11:13.807Z,10.20
2024-01-05T12:13:45.629Z,6.53
2024-01-05T12:16:17.653Z,5.85
2024-01-05T12:18:51.197Z,11.15
2024-01-05T12:21:24.140Z,8.82
2024-01-05T12:23:57.690Z,14.25
2024-01-05T12:26:31.026Z,10.90
2024-01-05T12:29:02.849Z,18.25
2024-01-05T12:31:35.038Z,6.72
2024-01-05T12:34:07.659Z,4.97
2024-01-05T12:36:39.634Z,6.57
2024-01-05T12:39:13.069Z,3.17
2024-01-05T12:41:48.881Z,4.32
2024-01-05T12:44:20.700Z,4.80
2024-01-05T12:46:54.193Z,8.35
2024-01-05T12:49:29.319Z,26.15
2024-01-05T12:52:01.224Z,10.52
2024-01-05T12:54:43.349Z,8.48
2024-01-05T12:57:22.723Z,9.07
2024-01-05T13:00:09.861Z,5.72
2024-01-05T13:02:42.344Z,10.10
2024-01-05T13:05:36.149Z,13.80
2024-01-05T13:08:08.036Z,10.32
2024-01-05T13:10:41.024Z,8.93
2024-01-05T13:13:12.953Z,29.02
2024-01-05T13:15:44.931Z,66.18
2024-01-05T13:18:16.873Z,22.33
2024-01-05T13:20:48.743Z,20.70
2024-01-05T13:23:20.541Z,33.60
2024-01-05T13:25:52.739Z,36.45
2024-01-05T13:28:24.552Z,17.17
2024-01-05T13:30:56.913Z,13.95
2024-01-05T13:33:28.894Z,9.05
2024-01-05T13:36:01.233Z,11.88
2024-01-05T13:38:33.508Z,29.55
2024-01-05T13:41:05.940Z,13.73
2024-01-05T13:43:37.908Z,8.90
2024-01-05T13:46:10.504Z,9.25
2024-01-05T13:48:42.425Z,7.05
2024-01-05T13:51:14.287Z,10.50
2024-01-05T13:53:46.073Z,12.38
2024-01-05T13:56:17.849Z,11.80
2024-01-05T13:58:49.641Z,18.90
2024-01-05T14:01:21.429Z,20.83
2024-01-05T14:03:53.241Z,19.50
2024-01-05T14:06:25.185Z,16.83
2024-01-05T14:08:56.953Z,15.10
2024-01-05T14:11:28.840Z,8.43
2024-01-05T14:14:00.634Z,11.18
2024-01-05T14:16:33.546Z,7.28
2024-01-05T14:19:05.412Z,12.50
2024-01-05T14:21:37.316Z,8.93
2024-01-05T14:24:09.331Z,8.10
2024-01-05T14:26:41.249Z,11.63
2024-01-05T14:29:13.242Z,8.80
2024-01-05T14:31:45.772Z,13.43
2024-01-05T14:34:17.769Z,12.45
2024-01-05T14:36:49.612Z,8.82
2024-01-05T14:39:24.033Z,9.60
2024-01-05T14:41:56.040Z,7.57
2024-01-05T14:44:27.888Z,11.00
2024-01-05T14:46:59.768Z,12.80
2024-01-05T14:49:32.199Z,10.32
2024-01-05T14:52:04.477Z,11.65
2024-01-05T14:54:36.329Z,13.20
2024-01-05T14:57:08.164Z,12.02
2024-01-05T14:59:39.927Z,15.45
2024-01-05T15:02:11.724Z,16.02
2024-01-05T15:04:43.568Z,15.85
2024-01-05T15:07:15.413Z,17.67
2024-01-05T15:09:47.551Z,16.40
2024-01-05T15:12:19.644Z,19.75
2024-01-05T15:14:51.436Z,16.52
2024-01-05T15:17:24.626Z,25.30
2024-01-05T15:19:56.606Z,23.98
2024-01-05T15:22:28.469Z,26.88
2024-01-05T15:25:00.244Z,17.17
2024-01-05T15:27:32.157Z,21.67
2024-01-05T15:30:04.331Z,26.13
2024-01-05T15:32:36.285Z,38.58
2024-01-05T15:35:08.919Z,36.42
2024-01-05T15:37:40.947Z,29.02
2024-01-05T15:40:13.445Z,31.42
2024-01-05T15:42:45.257Z,25.27
2024-01-05T15:45:17.630Z,24.65
2024-01-05T15:47:49.795Z,25.02
2024-01-05T15:50:21.902Z,29.92
2024-01-05T15:52:53.914Z,46.38
2024-01-05T15:55:25.965Z,47.08
2024-01-05T15:57:57.831Z,39.13
2024-01-05T16:00:30.225Z,56.50
2024-01-05T16:03:02.279Z,50.05
2024-01-05T16:05:35.093Z,49.85
2024-01-05T16:08:07.152Z,30.42
2024-01-05T16:10:38.954Z,36.03
2024-01-05T16:13:10.730Z,34.60
2024-01-05T16:15:42.572Z,35.72
2024-01-05T16:18:14.448Z,38.42
2024-01-05T16:20:47.619Z,40.53
2024-01-05T16:23:19.503Z,35.47
2024-01-05T16:25:51.271Z,49.85
2024-01-05T16:28:23.074Z,49.95
2024-01-05T16:30:54.915Z,62.92
2024-01-05T16:33:31.035Z,69.55
2024-01-05T16:36:03.938Z,69.47
2024-01-05T16:38:36.922Z,59.15
2024-01-05T16:41:11.585Z,52.95
2024-01-05T16:43:43.529Z,35.67
2024-01-05T16:46:15.407Z,41.95
2024-01-05T16:48:52.690Z,33.67
2024-01-05T16:51:26.576Z,28.05
2024-01-05T16:53:59.032Z,44.63
2024-01-05T16:56:32.724Z,37.63
2024-01-05T16:59:04.478Z,36.75
2024-01-05T17:01:36.746Z,36.63
2024-01-05T17:04:10.867Z,24.33
2024-01-05T17:06:43.654Z,27.20
2024-01-05T17:09:18.054Z,26.70
2024-01-05T17:11:49.830Z,28.45
2024-01-05T17:14:21.629Z,34.15
2024-01-05T17:16:53.506Z,42.28
2024-01-05T17:19:25.511Z,37.38
2024-01-05T17:21:57.390Z,36.67
2024-01-05T17:24:29.244Z,46.70
2024-01-05T17:27:01.192Z,36.55
2024-01-05T17:29:34.596Z,38.55
2024-01-05T17:32:06.613Z,33.05
2024-01-05T17:34:39.641Z,32.50
2024-01-05T17:37:14.940Z,34.20
2024-01-05T17:39:47.998Z,37.13
2024-01-05T17:42:20.023Z,51.40
2024-01-05T17:44:54.990Z,71.55
2024-01-05T17:47:26.903Z,58.65
2024-01-05T17:49:59.764Z,38.85
2024-01-05T17:52:31.702Z,42.78
2024-01-05T17:55:03.629Z,40.60
2024-01-05T17:57:35.480Z,45.40
2024-01-05T18:00:08.352Z,50.30
2024-01-05T18:02:40.162Z,57.13
2024-01-05T18:05:12.696Z,52.45
2024-01-05T18:07:44.553Z,58.30
2024-01-05T18:10:16.400Z,49.45
2024-01-05T18:12:48.168Z,52.40
2024-01-05T18:15:20.109Z,52.50
2024-01-05T18:17:51.991Z,46.00
2024-01-05T18:20:23.848Z,48.20
2024-01-05T18:22:55.673Z,48.45
2024-01-05T18:25:29.283Z,54.30
2024-01-05T18:28:05.889Z,44.67
2024-01-05T18:30:37.868Z,43.40
2024-01-05T18:33:09.898Z,45.78
2024-01-05T18:35:41.733Z,49.30
2024-01-05T18:38:14.224Z,45.47
2024-01-05T18:40:46.254Z,33.28
2024-01-05T18:43:18.039Z,32.45
2024-01-05T18:45:50.229Z,30.58
2024-01-05T18:48:22.214Z,33.72
2024-01-05T18:50:54.244Z,39.67
2024-01-05T18:53:26.034Z,38.38
2024-01-05T18:55:57.953Z,45.42
2024-01-05T18:58:29.737Z,55.13
2024-01-05T19:01:02.684Z,72.43
2024-01-05T19:03:34.662Z,46.45
2024-01-05T19:06:06.994Z,49.88
2024-01-05T19:08:38.898Z,26.45
2024-01-05T19:11:10.882Z,41.75
2024-01-05T19:13:43.883Z,30.67
2024-01-05T19:16:18.105Z,41.90
2024-01-05T19:18:51.143Z,69.13
2024-01-05T19:21:23.054Z,60.08
2024-01-05T19:23:54.846Z,48.53
2024-01-05T19:26:27.285Z,49.85
2024-01-05T19:28:59.067Z,45.25
2024-01-05T19:31:31.041Z,46.72
2024-01-05T19:34:03.017Z,56.63
2024-01-05T19:36:34.911Z,54.85
2024-01-05T19:39:08.264Z,45.65
2024-01-05T19:41:47.038Z,32.83
2024-01-05T19:44:20.813Z,32.78
2024-01-05T19:46:52.610Z,44.33
2024-01-05T19:49:24.555Z,40.58
2024-01-05T19:51:56.444Z,49.20
2024-01-05T19:54:28.401Z,55.83
2024-01-05T19:57:00.259Z,39.60
2024-01-05T19:59:34.830Z,32.53
2024-01-05T20:02:06.649Z,52.78
2024-01-05T20:04:39.420Z,36.05
2024-01-05T20:07:12.172Z,40.22
2024-01-05T20:09:44.118Z,41.38
2024-01-05T20:12:18.089Z,55.08
2024-01-05T20:14:50.183Z,65.00
2024-01-05T20:17:24.141Z,58.90
2024-01-05T20:19:56.673Z,72.00
2024-01-05T20:22:29.039Z,67.90
2024-01-05T20:25:00.859Z,78.97
2024-01-05T20:27:42.876Z,88.10
2024-01-05T20:30:15.058Z,99.60
2024-01-05T20:32:46.951Z,85.13
2024-01-05T20:35:18.803Z,41.33
2024-01-05T20:37:50.565Z,50.50
2024-01-05T20:40:22.492Z,63.50
2024-01-05T20:42:54.372Z,53.50
2024-01-05T20:45:26.258Z,64.75
2024-01-05T20:47:58.172Z,55.78
2024-01-05T20:50:29.989Z,57.97
2024-01-05T20:53:11.291Z,48.65
2024-01-05T20:55:44.456Z,71.88
2024-01-05T20:58:16.204Z,76.57
2024-01-05T21:00:49.497Z,65.30
2024-01-05T21:03:21.576Z,68.03
2024-01-05T21:05:53.460Z,56.78
2024-01-05T21:08:25.238Z,47.10
2024-01-05T21:10:58.996Z,45.55
2024-01-05T21:13:30.788Z,51.63
2024-01-05T21:16:09.176Z,52.35
2024-01-05T21:18:41.055Z,50.38
2024-01-05T21:21:13.005Z,56.03
2024-01-05T21:23:44.814Z,61.08
2024-01-05T21:26:16.592Z,52.90
2024-01-05T21:28:48.384Z,54.40
2024-01-05T21:31:21.579Z,61.35
2024-01-05T21:33:54.455Z,62.60
2024-01-05T21:36:26.614Z,73.32
2024-01-05T21:38:58.425Z,64.30
2024-01-05T21:41:30.703Z,63.92
2024-01-05T21:44:02.497Z,73.78
2024-01-05T21:46:35.178Z,84.57
2024-01-05T21:49:07.481Z,64.60
2024-01-05T21:51:39.352Z,76.00
2024-01-05T21:54:11.683Z,52.45
2024-01-05T21:56:43.886Z,45.20
2024-01-05T21:59:15.864Z,46.45
2024-01-05T22:01:48.248Z,50.20
2024-01-05T22:04:20.163Z,52.20
2024-01-05T22:06:52.385Z,45.88
2024-01-05T22:09:24.247Z,45.55
2024-01-05T22:11:56.380Z,41.05
2024-01-05T22:14:28.242Z,36.03
2024-01-05T22:17:00.374Z,46.38
2024-01-05T22:19:32.375Z,47.85
2024-01-05T22:22:04.549Z,52.97
2024-01-05T22:24:37.089Z,60.15
2024-01-05T22:27:08.912Z,52.72
2024-01-05T22:29:41.300Z,52.53
2024-01-05T22:32:14.218Z,57.78
2024-01-05T22:34:46.120Z,51.28
2024-01-05T22:37:18.985Z,52.33
2024-01-05T22:39:50.778Z,49.70
2024-01-05T22:42:22.585Z,61.33
2024-01-05T22:44:54.367Z,51.17
2024-01-05T22:47:26.585Z,56.95
2024-01-05T22:49:58.449Z,52.25
2024-01-05T22:52:30.245Z,47.40
2024-01-05T22:55:04.849Z,46.50
2024-01-05T22:57:39.101Z,48.00
2024-01-05T23:00:11.849Z,47.78
2024-01-05T23:02:44.448Z,43.58
2024-01-05T23:05:16.222Z,41.17
2024-01-05T23:07:48.057Z,44.50
2024-01-05T23:10:19.887Z,37.75
2024-01-05T23:12:51.690Z,37.20
2024-01-05T23:15:24.239Z,51.03
2024-01-05T23:17:56.083Z,36.10
2024-01-05T23:20:28.931Z,31.83
2024-01-05T23:23:00.692Z,32.10
2024-01-05T23:25:32.507Z,32.97
2024-01-05T23:28:04.617Z,28.63
2024-01-05T23:30:36.510Z,30.98
2024-01-05T23:33:08.441Z,34.30
2024-01-05T23:35:40.266Z,36.50
2024-01-05T23:38:12.129Z,52.78
2024-01-05T23:40:43.943Z,48.35
2024-01-05T23:43:15.740Z,44.40
2024-01-05T23:45:47.755Z,34.22
2024-01-05T23:48:19.723Z,36.92
2024-01-05T23:50:52.301Z,33.08
2024-01-05T23:53:24.104Z,32.15
2024-01-05T23:55:55.875Z,35.25
2024-01-05T23:58:28.121Z,38.72
